sensor_id;sensor_type;location;lat;lon;timestamp;pressure;altitude;pressure_sealevel;temperature;humidity
12793;BME280;6460;42.684;23.260;2024-01-06T00:01:55;94404.84;;;7.19;95.70
12793;BME280;6460;42.684;23.260;2024-01-06T00:04:22;94407.13;;;7.05;98.06
12793;BME280;6460;42.684;23.260;2024-01-06T00:06:53;94396.63;;;7.12;98.41
12793;BME280;6460;42.684;23.260;2024-01-06T00:09:21;94400.81;;;7.25;98.33
12793;BME280;6460;42.684;23.260;2024-01-06T00:11:50;94399.78;;;7.02;98.57
12793;BME280;6460;42.684;23.260;2024-01-06T00:14:18;94407.69;;;7.38;97.70
12793;BME280;6460;42.684;23.260;2024-01-06T00:16:45;94419.22;;;7.26;96.55
12793;BME280;6460;42.684;23.260;2024-01-06T00:19:13;94423.94;;;7.45;97.00
12793;BME280;6460;42.684;23.260;2024-01-06T00:21:43;94416.53;;;7.26;96.41
12793;BME280;6460;42.684;23.260;2024-01-06T00:24:11;94414.97;;;7.25;97.07
12793;BME280;6460;42.684;23.260;2024-01-06T00:26:39;94413.94;;;7.42;97.42
12793;BME280;6460;42.684;23.260;2024-01-06T00:29:08;94416.47;;;7.51;97.09
12793;BME280;6460;42.684;23.260;2024-01-06T00:31:35;94440.00;;;7.45;96.19
12793;BME280;6460;42.684;23.260;2024-01-06T00:34:03;94432.34;;;7.19;96.43
12793;BME280;6460;42.684;23.260;2024-01-06T00:36:31;94418.88;;;7.16;97.64
12793;BME280;6460;42.684;23.260;2024-01-06T00:38:59;94430.38;;;7.04;99.08
12793;BME280;6460;42.684;23.260;2024-01-06T00:41:26;94428.59;;;7.20;98.58
12793;BME280;6460;42.684;23.260;2024-01-06T00:43:54;94418.47;;;7.14;98.31
12793;BME280;6460;42.684;23.260;2024-01-06T00:46:23;94404.06;;;7.30;98.98
12793;BME280;6460;42.684;23.260;2024-01-06T00:48:51;94388.91;;;7.22;98.68
12793;BME280;6460;42.684;23.260;2024-01-06T00:51:19;94411.59;;;7.40;97.73
12793;BME280;6460;42.684;23.260;2024-01-06T00:53:47;94413.47;;;7.00;99.76
12793;BME280;6460;42.684;23.260;2024-01-06T00:56:15;94414.19;;;7.25;98.79
12793;BME280;6460;42.684;23.260;2024-01-06T00:58:43;94414.19;;;7.25;97.92
12793;BME280;6460;42.684;23.260;2024-01-06T01:01:11;94400.34;;;6.95;99.18
12793;BME280;6460;42.684;23.260;2024-01-06T01:03:40;94412.56;;;7.08;99.38
12793;BME280;6460;42.684;23.260;2024-01-06T01:06:07;94421.47;;;6.64;100.00
12793;BME280;6460;42.684;23.260;2024-01-06T01:08:35;94413.81;;;6.86;100.00
12793;BME280;6460;42.684;23.260;2024-01-06T01:11:03;94399.66;;;6.98;100.00
12793;BME280;6460;42.684;23.260;2024-01-06T01:13:31;94395.69;;;6.92;100.00
12793;BME280;6460;42.684;23.260;2024-01-06T01:15:58;94397.44;;;7.00;100.00
12793;BME280;6460;42.684;23.260;2024-01-06T01:18:25;94392.53;;;6.90;100.00
12793;BME280;6460;42.684;23.260;2024-01-06T01:20:54;94389.16;;;7.05;100.00
12793;BME280;6460;42.684;23.260;2024-01-06T01:23:22;94393.19;;;7.11;100.00
12793;BME280;6460;42.684;23.260;2024-01-06T01:25:49;94391.94;;;7.09;100.00
12793;BME280;6460;42.684;23.260;2024-01-06T01:28:17;94392.84;;;7.13;100.00
12793;BME280;6460;42.684;23.260;2024-01-06T01:30:44;94396.31;;;7.01;99.71
12793;BME280;6460;42.684;23.260;2024-01-06T01:33:12;94384.84;;;7.01;100.00
12793;BME280;6460;42.684;23.260;2024-01-06T01:35:40;94382.50;;;7.11;100.00
12793;BME280;6460;42.684;23.260;2024-01-06T01:38:09;94385.03;;;7.20;99.62
12793;BME280;6460;42.684;23.260;2024-01-06T01:40:37;94376.63;;;6.93;100.00
12793;BME280;6460;42.684;23.260;2024-01-06T01:43:04;94384.03;;;7.12;100.00
12793;BME280;6460;42.684;23.260;2024-01-06T01:45:32;94384.25;;;7.19;99.47
12793;BME280;6460;42.684;23.260;2024-01-06T01:48:00;94368.47;;;7.02;100.00
12793;BME280;6460;42.684;23.260;2024-01-06T01:50:28;94383.19;;;7.08;99.08
12793;BME280;6460;42.684;23.260;2024-01-06T01:52:57;94366.38;;;6.96;99.72
12793;BME280;6460;42.684;23.260;2024-01-06T01:55:27;94369.81;;;6.96;100.00
12793;BME280;6460;42.684;23.260;2024-01-06T01:57:55;94375.63;;;6.13;100.00
12793;BME280;6460;42.684;23.260;2024-01-06T02:00:23;94356.19;;;6.49;100.00
12793;BME280;6460;42.684;23.260;2024-01-06T02:02:50;94374.34;;;6.56;100.00
12793;BME280;6460;42.684;23.260;2024-01-06T02:05:18;94370.53;;;6.20;100.00
12793;BME280;6460;42.684;23.260;2024-01-06T02:07:46;94350.63;;;6.42;100.00
12793;BME280;6460;42.684;23.260;2024-01-06T02:10:16;94355.97;;;6.42;100.00
12793;BME280;6460;42.684;23.260;2024-01-06T02:12:46;94342.06;;;6.49;100.00
12793;BME280;6460;42.684;23.260;2024-01-06T02:15:13;94346.72;;;6.64;100.00
12793;BME280;6460;42.684;23.260;2024-01-06T02:17:42;94348.75;;;6.30;100.00
12793;BME280;6460;42.684;23.260;2024-01-06T02:20:11;94348.06;;;6.58;100.00
12793;BME280;6460;42.684;23.260;2024-01-06T02:22:41;94346.41;;;6.53;100.00
12793;BME280;6460;42.684;23.260;2024-01-06T02:25:09;94328.06;;;6.27;100.00
12793;BME280;6460;42.684;23.260;2024-01-06T02:27:38;94323.94;;;6.66;100.00
12793;BME280;6460;42.684;23.260;2024-01-06T02:30:07;94315.44;;;6.88;100.00
12793;BME280;6460;42.684;23.260;2024-01-06T02:32:34;94322.19;;;6.98;100.00
12793;BME280;6460;42.684;23.260;2024-01-06T02:35:02;94323.59;;;6.68;100.00
12793;BME280;6460;42.684;23.260;2024-01-06T02:37:30;94311.13;;;6.72;100.00
12793;BME280;6460;42.684;23.260;2024-01-06T02:40:00;94301.50;;;6.83;100.00
12793;BME280;6460;42.684;23.260;2024-01-06T02:42:28;94308.84;;;6.98;100.00
12793;BME280;6460;42.684;23.260;2024-01-06T02:44:56;94309.31;;;6.88;100.00
12793;BME280;6460;42.684;23.260;2024-01-06T02:47:24;94314.22;;;6.74;100.00
12793;BME280;6460;42.684;23.260;2024-01-06T02:49:51;94305.31;;;6.82;100.00
12793;BME280;6460;42.684;23.260;2024-01-06T02:52:19;94298.19;;;6.86;100.00
12793;BME280;6460;42.684;23.260;2024-01-06T02:54:48;94293.88;;;7.09;100.00
12793;BME280;6460;42.684;23.260;2024-01-06T02:57:18;94293.09;;;7.09;100.00
12793;BME280;6460;42.684;23.260;2024-01-06T02:59:45;94291.16;;;7.21;100.00
12793;BME280;6460;42.684;23.260;2024-01-06T03:02:17;94286.25;;;7.23;100.00
12793;BME280;6460;42.684;23.260;2024-01-06T03:04:46;94283.31;;;7.28;100.00
12793;BME280;6460;42.684;23.260;2024-01-06T03:07:15;94295.91;;;7.00;100.00
12793;BME280;6460;42.684;23.260;2024-01-06T03:09:42;94278.66;;;7.25;100.00
12793;BME280;6460;42.684;23.260;2024-01-06T03:12:10;94285.13;;;7.24;98.51
12793;BME280;6460;42.684;23.260;2024-01-06T03:14:40;94279.31;;;7.07;99.00
12793;BME280;6460;42.684;23.260;2024-01-06T03:17:08;94276.00;;;6.98;99.74
12793;BME280;6460;42.684;23.260;2024-01-06T03:19:38;94277.63;;;7.14;98.61
12793;BME280;6460;42.684;23.260;2024-01-06T03:22:06;94270.59;;;7.10;98.63
12793;BME280;6460;42.684;23.260;2024-01-06T03:24:34;94277.63;;;7.14;97.41
12793;BME280;6460;42.684;23.260;2024-01-06T03:27:04;94275.91;;;6.94;97.45
12793;BME280;6460;42.684;23.260;2024-01-06T03:29:32;94280.09;;;7.07;97.03
12793;BME280;6460;42.684;23.260;2024-01-06T03:32:01;94281.66;;;6.96;97.57
12793;BME280;6460;42.684;23.260;2024-01-06T03:34:30;94273.47;;;7.17;96.87
12793;BME280;6460;42.684;23.260;2024-01-06T03:36:58;94277.25;;;6.88;97.73
12793;BME280;6460;42.684;23.260;2024-01-06T03:39:25;94281.03;;;6.87;98.03
12793;BME280;6460;42.684;23.260;2024-01-06T03:41:54;94263.28;;;7.07;97.45
12793;BME280;6460;42.684;23.260;2024-01-06T03:44:22;94272.16;;;6.71;97.41
12793;BME280;6460;42.684;23.260;2024-01-06T03:46:50;94268.09;;;7.01;96.12
12793;BME280;6460;42.684;23.260;2024-01-06T03:49:20;94268.41;;;7.00;95.93
12793;BME280;6460;42.684;23.260;2024-01-06T03:51:48;94267.22;;;6.57;96.00
12793;BME280;6460;42.684;23.260;2024-01-06T03:54:16;94266.06;;;6.70;96.82
12793;BME280;6460;42.684;23.260;2024-01-06T03:56:45;94267.28;;;6.61;98.19
12793;BME280;6460;42.684;23.260;2024-01-06T03:59:13;94273.78;;;6.35;99.93
12793;BME280;6460;42.684;23.260;2024-01-06T04:01:41;94273.31;;;6.58;99.22
12793;BME280;6460;42.684;23.260;2024-01-06T04:04:09;94275.09;;;6.66;98.13
12793;BME280;6460;42.684;23.260;2024-01-06T04:06:39;94267.97;;;6.58;99.33
12793;BME280;6460;42.684;23.260;2024-01-06T04:09:08;94267.31;;;6.49;99.50
12793;BME280;6460;42.684;23.260;2024-01-06T04:11:36;94269.00;;;6.53;100.00
12793;BME280;6460;42.684;23.260;2024-01-06T04:14:05;94263.75;;;6.45;100.00
12793;BME280;6460;42.684;23.260;2024-01-06T04:16:34;94263.31;;;6.67;100.00
12793;BME280;6460;42.684;23.260;2024-01-06T04:19:02;94269.47;;;6.83;99.15
12793;BME280;6460;42.684;23.260;2024-01-06T04:21:33;94262.00;;;6.88;98.92
12793;BME280;6460;42.684;23.260;2024-01-06T04:24:03;94260.75;;;6.98;98.64
12793;BME280;6460;42.684;23.260;2024-01-06T04:26:32;94261.22;;;6.88;99.21
12793;BME280;6460;42.684;23.260;2024-01-06T04:29:00;94273.06;;;6.75;99.17
12793;BME280;6460;42.684;23.260;2024-01-06T04:31:30;94275.09;;;6.66;99.49
12793;BME280;6460;42.684;23.260;2024-01-06T04:33:58;94283.75;;;6.75;99.67
12793;BME280;6460;42.684;23.260;2024-01-06T04:36:26;94280.16;;;6.83;98.75
12793;BME280;6460;42.684;23.260;2024-01-06T04:38:55;94280.41;;;7.06;98.16
12793;BME280;6460;42.684;23.260;2024-01-06T04:41:25;94275.38;;;7.16;96.74
12793;BME280;6460;42.684;23.260;2024-01-06T04:43:53;94289.84;;;7.15;96.20
12793;BME280;6460;42.684;23.260;2024-01-06T04:46:21;94285.44;;;7.07;96.99
12793;BME280;6460;42.684;23.260;2024-01-06T04:48:50;94282.84;;;7.11;96.34
12793;BME280;6460;42.684;23.260;2024-01-06T04:51:19;94291.66;;;7.11;96.47
12793;BME280;6460;42.684;23.260;2024-01-06T04:53:47;94288.53;;;7.09;97.01
12793;BME280;6460;42.684;23.260;2024-01-06T04:56:15;94286.78;;;7.01;96.94
12793;BME280;6460;42.684;23.260;2024-01-06T04:58:45;94281.88;;;7.03;97.05
12793;BME280;6460;42.684;23.260;2024-01-06T05:01:13;94283.88;;;7.06;96.54
12793;BME280;6460;42.684;23.260;2024-01-06T05:03:41;94284.06;;;6.85;96.55
12793;BME280;6460;42.684;23.260;2024-01-06T05:06:10;94284.22;;;6.65;96.85
12793;BME280;6460;42.684;23.260;2024-01-06T05:08:38;94265.38;;;6.73;98.97
12793;BME280;6460;42.684;23.260;2024-01-06T05:11:11;94263.72;;;6.69;99.29
12793;BME280;6460;42.684;23.260;2024-01-06T05:13:39;94265.19;;;6.66;99.28
12793;BME280;6460;42.684;23.260;2024-01-06T05:16:09;94263.06;;;6.72;99.00
12793;BME280;6460;42.684;23.260;2024-01-06T05:18:38;94264.41;;;6.66;99.41
12793;BME280;6460;42.684;23.260;2024-01-06T05:21:06;94257.50;;;6.65;100.00
12793;BME280;6460;42.684;23.260;2024-01-06T05:23:35;94261.31;;;6.52;100.00
12793;BME280;6460;42.684;23.260;2024-01-06T05:26:04;94255.56;;;6.77;100.00
12793;BME280;6460;42.684;23.260;2024-01-06T05:28:32;94240.34;;;6.78;99.85
12793;BME280;6460;42.684;23.260;2024-01-06T05:31:00;94249.22;;;6.82;98.95
12793;BME280;6460;42.684;23.260;2024-01-06T05:33:31;94224.31;;;6.78;98.53
12793;BME280;6460;42.684;23.260;2024-01-06T05:36:00;94243.91;;;6.82;98.69
12793;BME280;6460;42.684;23.260;2024-01-06T05:38:28;94247.81;;;6.20;100.00
12793;BME280;6460;42.684;23.260;2024-01-06T05:40:57;94250.41;;;6.57;100.00
12793;BME280;6460;42.684;23.260;2024-01-06T05:43:25;94234.31;;;6.53;100.00
12793;BME280;6460;42.684;23.260;2024-01-06T05:45:53;94242.25;;;5.77;100.00
12793;BME280;6460;42.684;23.260;2024-01-06T05:48:22;94250.44;;;5.84;100.00
12793;BME280;6460;42.684;23.260;2024-01-06T05:50:52;94236.91;;;6.13;100.00
12793;BME280;6460;42.684;23.260;2024-01-06T05:53:20;94251.38;;;6.12;100.00
12793;BME280;6460;42.684;23.260;2024-01-06T05:55:48;94230.72;;;6.09;100.00
12793;BME280;6460;42.684;23.260;2024-01-06T05:58:18;94255.16;;;5.99;100.00
12793;BME280;6460;42.684;23.260;2024-01-06T06:00:46;94241.75;;;5.39;100.00
12793;BME280;6460;42.684;23.260;2024-01-06T06:03:13;94244.34;;;5.83;100.00
12793;BME280;6460;42.684;23.260;2024-01-06T06:05:43;94256.25;;;5.86;100.00
12793;BME280;6460;42.684;23.260;2024-01-06T06:08:13;94252.16;;;5.31;100.00
12793;BME280;6460;42.684;23.260;2024-01-06T06:10:41;94237.34;;;5.67;100.00
12793;BME280;6460;42.684;23.260;2024-01-06T06:13:25;94247.44;;;5.61;100.00
12793;BME280;6460;42.684;23.260;2024-01-06T06:15:54;94238.00;;;5.64;100.00
12793;BME280;6460;42.684;23.260;2024-01-06T06:18:22;94241.78;;;5.75;100.00
12793;BME280;6460;42.684;23.260;2024-01-06T06:20:56;94244.25;;;5.92;100.00
12793;BME280;6460;42.684;23.260;2024-01-06T06:23:44;94250.69;;;5.91;100.00
12793;BME280;6460;42.684;23.260;2024-01-06T06:26:37;94243.78;;;5.66;100.00
12793;BME280;6460;42.684;23.260;2024-01-06T06:35:37;94258.00;;;5.58;100.00
12793;BME280;6460;42.684;23.260;2024-01-06T06:38:04;94246.66;;;5.73;100.00
12793;BME280;6460;42.684;23.260;2024-01-06T06:40:34;94242.94;;;5.86;100.00
12793;BME280;6460;42.684;23.260;2024-01-06T06:43:03;94247.72;;;5.93;100.00
12793;BME280;6460;42.684;23.260;2024-01-06T06:45:31;94247.34;;;5.82;100.00
12793;BME280;6460;42.684;23.260;2024-01-06T06:48:00;94255.03;;;6.08;100.00
12793;BME280;6460;42.684;23.260;2024-01-06T06:50:28;94257.16;;;6.14;100.00
12793;BME280;6460;42.684;23.260;2024-01-06T06:52:59;94247.69;;;6.17;100.00
12793;BME280;6460;42.684;23.260;2024-01-06T06:55:28;94254.81;;;6.25;100.00
12793;BME280;6460;42.684;23.260;2024-01-06T06:57:58;94241.09;;;6.51;100.00
12793;BME280;6460;42.684;23.260;2024-01-06T07:00:26;94243.00;;;6.38;100.00
12793;BME280;6460;42.684;23.260;2024-01-06T07:02:55;94258.91;;;6.10;100.00
12793;BME280;6460;42.684;23.260;2024-01-06T07:05:23;94249.78;;;6.35;100.00
12793;BME280;6460;42.684;23.260;2024-01-06T07:07:51;94246.44;;;5.66;100.00
12793;BME280;6460;42.684;23.260;2024-01-06T07:10:19;94247.25;;;6.27;100.00
12793;BME280;6460;42.684;23.260;2024-01-06T07:12:47;94245.78;;;5.69;100.00
12793;BME280;6460;42.684;23.260;2024-01-06T07:15:17;94262.66;;;5.85;100.00
12793;BME280;6460;42.684;23.260;2024-01-06T07:17:46;94245.59;;;6.10;100.00
12793;BME280;6460;42.684;23.260;2024-01-06T07:20:14;94245.03;;;6.17;100.00
12793;BME280;6460;42.684;23.260;2024-01-06T07:22:42;94254.03;;;6.24;100.00
12793;BME280;6460;42.684;23.260;2024-01-06T07:25:11;94240.91;;;5.71;100.00
12793;BME280;6460;42.684;23.260;2024-01-06T07:27:39;94244.44;;;5.75;100.00
12793;BME280;6460;42.684;23.260;2024-01-06T07:30:08;94240.59;;;6.21;100.00
12793;BME280;6460;42.684;23.260;2024-01-06T07:32:41;94234.88;;;6.22;100.00
12793;BME280;6460;42.684;23.260;2024-01-06T07:35:09;94236.47;;;6.23;100.00
12793;BME280;6460;42.684;23.260;2024-01-06T07:37:40;94241.84;;;6.51;100.00
12793;BME280;6460;42.684;23.260;2024-01-06T07:40:10;94228.38;;;6.60;100.00
12793;BME280;6460;42.684;23.260;2024-01-06T07:42:39;94235.88;;;6.30;100.00
12793;BME280;6460;42.684;23.260;2024-01-06T07:45:08;94239.34;;;6.70;100.00
12793;BME280;6460;42.684;23.260;2024-01-06T07:47:36;94245.69;;;6.78;100.00
12793;BME280;6460;42.684;23.260;2024-01-06T07:50:09;94223.44;;;6.74;100.00
12793;BME280;6460;42.684;23.260;2024-01-06T07:52:37;94245.34;;;6.27;100.00
12793;BME280;6460;42.684;23.260;2024-01-06T07:55:06;94233.56;;;5.80;100.00
12793;BME280;6460;42.684;23.260;2024-01-06T07:57:34;94244.91;;;6.25;100.00
12793;BME280;6460;42.684;23.260;2024-01-06T08:00:02;94237.91;;;6.73;100.00
12793;BME280;6460;42.684;23.260;2024-01-06T08:02:32;94235.53;;;6.83;100.00
12793;BME280;6460;42.684;23.260;2024-01-06T08:05:01;94231.84;;;7.16;100.00
12793;BME280;6460;42.684;23.260;2024-01-06T08:07:31;94235.56;;;7.27;100.00
12793;BME280;6460;42.684;23.260;2024-01-06T08:09:59;94230.47;;;7.37;100.00
12793;BME280;6460;42.684;23.260;2024-01-06T08:12:31;94241.28;;;7.41;97.66
12793;BME280;6460;42.684;23.260;2024-01-06T08:14:59;94232.13;;;7.26;96.35
12793;BME280;6460;42.684;23.260;2024-01-06T08:17:27;94220.56;;;7.38;95.08
12793;BME280;6460;42.684;23.260;2024-01-06T08:19:55;94248.88;;;7.39;94.96
12793;BME280;6460;42.684;23.260;2024-01-06T08:22:23;94231.53;;;7.49;95.04
12793;BME280;6460;42.684;23.260;2024-01-06T08:24:52;94246.91;;;7.52;94.86
12793;BME280;6460;42.684;23.260;2024-01-06T08:27:19;94228.69;;;7.57;95.09
12793;BME280;6460;42.684;23.260;2024-01-06T08:29:47;94246.91;;;7.67;94.13
12793;BME280;6460;42.684;23.260;2024-01-06T08:32:15;94223.63;;;7.52;94.64
12793;BME280;6460;42.684;23.260;2024-01-06T08:34:43;94243.13;;;7.53;94.31
12793;BME280;6460;42.684;23.260;2024-01-06T08:37:10;94224.03;;;7.54;95.10
12793;BME280;6460;42.684;23.260;2024-01-06T08:39:37;94234.09;;;7.29;95.13
12793;BME280;6460;42.684;23.260;2024-01-06T08:42:06;94247.88;;;7.59;94.60
12793;BME280;6460;42.684;23.260;2024-01-06T08:44:34;94220.69;;;7.73;93.89
12793;BME280;6460;42.684;23.260;2024-01-06T08:47:01;94228.56;;;7.81;92.60
12793;BME280;6460;42.684;23.260;2024-01-06T08:49:29;94221.19;;;7.94;92.70
12793;BME280;6460;42.684;23.260;2024-01-06T08:51:56;94226.16;;;8.11;92.54
12793;BME280;6460;42.684;23.260;2024-01-06T08:54:24;94224.53;;;8.22;91.93
12793;BME280;6460;42.684;23.260;2024-01-06T08:56:51;94207.50;;;8.30;91.28
12793;BME280;6460;42.684;23.260;2024-01-06T08:59:21;94226.75;;;8.52;89.97
12793;BME280;6460;42.684;23.260;2024-01-06T09:01:48;94212.88;;;8.30;90.88
12793;BME280;6460;42.684;23.260;2024-01-06T09:04:18;94211.38;;;8.68;89.33
12793;BME280;6460;42.684;23.260;2024-01-06T09:06:46;94204.03;;;8.65;88.95
12793;BME280;6460;42.684;23.260;2024-01-06T09:09:14;94204.16;;;8.52;88.87
12793;BME280;6460;42.684;23.260;2024-01-06T09:11:42;94191.56;;;8.72;89.12
12793;BME280;6460;42.684;23.260;2024-01-06T09:14:10;94190.94;;;8.98;88.35
12793;BME280;6460;42.684;23.260;2024-01-06T09:16:39;94186.19;;;9.11;87.74
12793;BME280;6460;42.684;23.260;2024-01-06T09:19:09;94188.09;;;8.72;87.94
12793;BME280;6460;42.684;23.260;2024-01-06T09:21:37;94178.16;;;9.11;87.33
12793;BME280;6460;42.684;23.260;2024-01-06T09:24:05;94186.50;;;9.06;86.59
12793;BME280;6460;42.684;23.260;2024-01-06T09:26:33;94176.97;;;9.08;86.82
12793;BME280;6460;42.684;23.260;2024-01-06T09:29:01;94170.16;;;9.14;86.07
12793;BME280;6460;42.684;23.260;2024-01-06T09:31:31;94167.53;;;8.95;86.56
12793;BME280;6460;42.684;23.260;2024-01-06T09:34:02;94159.66;;;9.47;95.65
12793;BME280;6460;42.684;23.260;2024-01-06T09:36:31;94173.78;;;9.44;93.69
12793;BME280;6460;42.684;23.260;2024-01-06T09:38:59;94156.97;;;9.47;88.60
12793;BME280;6460;42.684;23.260;2024-01-06T09:41:26;94141.09;;;9.39;86.81
12793;BME280;6460;42.684;23.260;2024-01-06T09:43:53;94143.91;;;9.46;85.96
12793;BME280;6460;42.684;23.260;2024-01-06T09:46:24;94135.69;;;9.35;86.19
12793;BME280;6460;42.684;23.260;2024-01-06T09:48:54;94138.00;;;9.37;86.05
12793;BME280;6460;42.684;23.260;2024-01-06T09:51:23;94139.63;;;9.19;87.09
12793;BME280;6460;42.684;23.260;2024-01-06T09:53:56;94123.44;;;9.34;87.68
12793;BME280;6460;42.684;23.260;2024-01-06T09:56:25;94118.28;;;9.48;86.99
12793;BME280;6460;42.684;23.260;2024-01-06T09:58:54;94123.44;;;9.61;86.32
12793;BME280;6460;42.684;23.260;2024-01-06T10:01:21;94116.50;;;9.56;85.85
12793;BME280;6460;42.684;23.260;2024-01-06T10:03:49;94114.13;;;9.77;85.45
12793;BME280;6460;42.684;23.260;2024-01-06T10:06:16;94112.81;;;9.68;84.38
12793;BME280;6460;42.684;23.260;2024-01-06T10:08:50;94103.34;;;10.00;83.42
12793;BME280;6460;42.684;23.260;2024-01-06T10:11:18;94111.03;;;10.01;82.74
12793;BME280;6460;42.684;23.260;2024-01-06T10:13:48;94105.91;;;9.93;82.43
12793;BME280;6460;42.684;23.260;2024-01-06T10:16:17;94102.78;;;10.14;82.36
12793;BME280;6460;42.684;23.260;2024-01-06T10:18:45;94093.72;;;10.25;81.28
12793;BME280;6460;42.684;23.260;2024-01-06T10:21:14;94094.56;;;10.29;80.37
12793;BME280;6460;42.684;23.260;2024-01-06T10:23:52;94088.84;;;10.34;79.50
12793;BME280;6460;42.684;23.260;2024-01-06T10:26:21;94081.84;;;10.26;78.86
12793;BME280;6460;42.684;23.260;2024-01-06T10:28:49;94079.25;;;10.33;79.40
12793;BME280;6460;42.684;23.260;2024-01-06T10:31:21;94073.81;;;10.26;79.20
12793;BME280;6460;42.684;23.260;2024-01-06T10:33:49;94071.16;;;11.00;91.33
12793;BME280;6460;42.684;23.260;2024-01-06T10:36:17;94052.56;;;11.25;93.33
12793;BME280;6460;42.684;23.260;2024-01-06T10:38:49;94057.16;;;11.24;80.27
12793;BME280;6460;42.684;23.260;2024-01-06T10:41:17;94060.88;;;11.09;77.17
12793;BME280;6460;42.684;23.260;2024-01-06T10:43:44;94060.72;;;10.95;78.29
12793;BME280;6460;42.684;23.260;2024-01-06T10:46:15;94040.03;;;10.99;76.95
12793;BME280;6460;42.684;23.260;2024-01-06T10:48:43;94038.47;;;10.98;75.42
12793;BME280;6460;42.684;23.260;2024-01-06T10:51:12;94052.19;;;10.86;75.87
12793;BME280;6460;42.684;23.260;2024-01-06T10:53:41;94046.00;;;10.78;76.25
12793;BME280;6460;42.684;23.260;2024-01-06T10:56:11;94039.88;;;10.81;76.28
12793;BME280;6460;42.684;23.260;2024-01-06T10:58:39;94036.69;;;10.72;76.89
12793;BME280;6460;42.684;23.260;2024-01-06T11:01:13;94020.59;;;10.76;76.46
12793;BME280;6460;42.684;23.260;2024-01-06T11:03:43;94017.19;;;10.79;76.09
12793;BME280;6460;42.684;23.260;2024-01-06T11:06:11;94018.50;;;10.55;76.85
12793;BME280;6460;42.684;23.260;2024-01-06T11:08:46;94014.09;;;10.77;77.07
12793;BME280;6460;42.684;23.260;2024-01-06T11:11:18;94007.59;;;10.78;76.23
12793;BME280;6460;42.684;23.260;2024-01-06T11:13:46;94004.84;;;11.18;74.19
12793;BME280;6460;42.684;23.260;2024-01-06T11:16:34;94000.97;;;11.12;73.93
12793;BME280;6460;42.684;23.260;2024-01-06T11:19:03;94002.69;;;11.34;73.83
12793;BME280;6460;42.684;23.260;2024-01-06T11:21:53;94001.19;;;11.40;73.30
12793;BME280;6460;42.684;23.260;2024-01-06T11:24:23;93991.63;;;11.50;73.41
12793;BME280;6460;42.684;23.260;2024-01-06T11:26:56;93998.28;;;11.66;71.86
12793;BME280;6460;42.684;23.260;2024-01-06T11:29:25;93989.06;;;11.67;71.66
12793;BME280;6460;42.684;23.260;2024-01-06T11:32:20;93985.38;;;11.90;69.80
12793;BME280;6460;42.684;23.260;2024-01-06T11:34:49;93978.44;;;11.89;67.80
12793;BME280;6460;42.684;23.260;2024-01-06T11:37:23;93970.69;;;11.77;68.92
12793;BME280;6460;42.684;23.260;2024-01-06T11:39:51;93960.00;;;11.98;68.81
12793;BME280;6460;42.684;23.260;2024-01-06T11:42:32;93957.00;;;12.17;67.69
12793;BME280;6460;42.684;23.260;2024-01-06T11:45:02;93947.34;;;12.05;65.74
12793;BME280;6460;42.684;23.260;2024-01-06T11:47:32;93938.19;;;12.38;64.55
12793;BME280;6460;42.684;23.260;2024-01-06T11:50:01;93929.34;;;12.31;63.64
12793;BME280;6460;42.684;23.260;2024-01-06T11:52:30;93923.56;;;12.39;62.56
12793;BME280;6460;42.684;23.260;2024-01-06T11:54:59;93922.78;;;12.28;62.72
12793;BME280;6460;42.684;23.260;2024-01-06T11:57:29;93922.41;;;12.33;63.39
12793;BME280;6460;42.684;23.260;2024-01-06T11:59:57;93933.13;;;12.19;64.05
12793;BME280;6460;42.684;23.260;2024-01-06T12:02:24;93909.31;;;12.28;63.07
12793;BME280;6460;42.684;23.260;2024-01-06T12:04:52;93912.75;;;12.29;63.16
12793;BME280;6460;42.684;23.260;2024-01-06T12:07:21;93898.94;;;12.34;63.25
12793;BME280;6460;42.684;23.260;2024-01-06T12:09:50;93891.66;;;12.55;62.35
12793;BME280;6460;42.684;23.260;2024-01-06T12:12:18;93890.06;;;12.33;61.17
12793;BME280;6460;42.684;23.260;2024-01-06T12:14:49;93895.25;;;11.69;63.71
12793;BME280;6460;42.684;23.260;2024-01-06T12:17:16;93883.06;;;12.04;62.57
12793;BME280;6460;42.684;23.260;2024-01-06T12:19:44;93899.63;;;12.13;62.10
12793;BME280;6460;42.684;23.260;2024-01-06T12:22:13;93895.41;;;12.05;61.69
12793;BME280;6460;42.684;23.260;2024-01-06T12:24:41;93898.88;;;12.05;61.70
12793;BME280;6460;42.684;23.260;2024-01-06T12:27:10;93898.47;;;12.07;61.66
12793;BME280;6460;42.684;23.260;2024-01-06T12:29:40;93899.63;;;12.02;62.35
12793;BME280;6460;42.684;23.260;2024-01-06T12:32:09;93901.56;;;12.05;62.50
12793;BME280;6460;42.684;23.260;2024-01-06T12:34:39;93900.81;;;12.12;61.94
12793;BME280;6460;42.684;23.260;2024-01-06T12:37:06;93885.03;;;12.17;62.21
12793;BME280;6460;42.684;23.260;2024-01-06T12:39:35;93880.81;;;12.20;62.62
12793;BME280;6460;42.684;23.260;2024-01-06T12:42:02;93883.22;;;11.46;64.72
12793;BME280;6460;42.684;23.260;2024-01-06T12:44:31;93878.31;;;11.69;65.48
12793;BME280;6460;42.684;23.260;2024-01-06T12:47:02;93869.22;;;12.02;63.95
12793;BME280;6460;42.684;23.260;2024-01-06T12:49:31;93869.22;;;11.95;64.70
12793;BME280;6460;42.684;23.260;2024-01-06T12:51:59;93870.34;;;11.90;65.48
12793;BME280;6460;42.684;23.260;2024-01-06T12:54:26;93863.00;;;11.73;66.74
12793;BME280;6460;42.684;23.260;2024-01-06T12:56:54;93870.75;;;11.96;66.86
12793;BME280;6460;42.684;23.260;2024-01-06T12:59:21;93872.16;;;11.65;66.72
12793;BME280;6460;42.684;23.260;2024-01-06T13:01:49;93869.25;;;12.09;65.87
12793;BME280;6460;42.684;23.260;2024-01-06T13:04:16;93868.84;;;12.03;65.82
12793;BME280;6460;42.684;23.260;2024-01-06T13:06:45;93871.63;;;12.56;65.62
12793;BME280;6460;42.684;23.260;2024-01-06T13:09:14;93859.25;;;13.26;63.61
12793;BME280;6460;42.684;23.260;2024-01-06T13:11:43;93872.19;;;13.81;60.24
12793;BME280;6460;42.684;23.260;2024-01-06T13:14:13;93866.59;;;14.23;58.62
12793;BME280;6460;42.684;23.260;2024-01-06T13:16:40;93857.91;;;14.56;55.63
12793;BME280;6460;42.684;23.260;2024-01-06T13:19:08;93860.81;;;14.79;53.33
12793;BME280;6460;42.684;23.260;2024-01-06T13:21:35;93845.72;;;15.23;51.90